createdAt,value
2019-02-19T00:02:06.938Z,12.10
2019-02-19T00:04:41.131Z,12.10
2019-02-19T00:07:09.396Z,12.20
2019-02-19T00:09:37.387Z,12.20
2019-02-19T00:12:13.605Z,12.20
2019-02-19T00:14:43.628Z,12.20
2019-02-19T00:17:11.797Z,12.20
2019-02-19T00:19:39.767Z,12.20
2019-02-19T00:22:09.657Z,12.20
2019-02-19T00:24:37.575Z,12.20
2019-02-19T00:27:05.632Z,12.20
2019-02-19T00:29:33.762Z,12.20
2019-02-19T00:32:01.752Z,12.10
2019-02-19T00:34:29.822Z,12.20
2019-02-19T00:36:57.807Z,12.20
2019-02-19T00:39:25.764Z,12.20
2019-02-19T00:41:53.870Z,12.10
2019-02-19T00:44:22.778Z,12.10
2019-02-19T00:46:50.720Z,12.10
2019-02-19T00:49:18.668Z,12.10
2019-02-19T00:51:46.582Z,12.00
2019-02-19T00:54:14.499Z,12.00
2019-02-19T00:56:42.443Z,12.00
2019-02-19T00:59:10.693Z,12.00
2019-02-19T01:01:38.715Z,12.00
2019-02-19T01:04:06.680Z,11.90
2019-02-19T01:06:34.655Z,11.90
2019-02-19T01:09:02.684Z,11.90
2019-02-19T01:11:30.626Z,11.90
2019-02-19T01:13:58.566Z,11.80
2019-02-19T01:16:26.519Z,11.90
2019-02-19T01:18:54.442Z,11.80
2019-02-19T01:21:22.387Z,11.80
2019-02-19T01:23:50.355Z,11.80
2019-02-19T01:26:18.561Z,11.70
2019-02-19T01:28:46.498Z,11.70
2019-02-19T01:31:14.469Z,11.70
2019-02-19T01:33:42.572Z,11.70
2019-02-19T01:36:10.507Z,11.60
2019-02-19T01:38:38.439Z,11.60
2019-02-19T01:41:07.347Z,11.60
2019-02-19T01:43:35.295Z,11.60
2019-02-19T01:46:03.236Z,11.50
2019-02-19T01:48:31.207Z,11.50
2019-02-19T01:50:59.164Z,11.40
2019-02-19T01:53:27.286Z,11.40
2019-02-19T01:55:55.253Z,11.30
2019-02-19T01:58:23.204Z,11.30
2019-02-19T02:00:52.081Z,11.30
2019-02-19T02:03:20.079Z,11.20
2019-02-19T02:05:48.156Z,11.20
2019-02-19T02:08:16.131Z,11.20
2019-02-19T02:10:44.078Z,11.20
2019-02-19T02:13:12.066Z,11.20
2019-02-19T02:15:42.622Z,11.20
2019-02-19T02:18:10.064Z,11.30
2019-02-19T02:20:38.113Z,11.20
2019-02-19T02:23:06.072Z,11.20
2019-02-19T02:25:43.201Z,11.30
2019-02-19T02:28:11.368Z,11.30
2019-02-19T02:30:39.386Z,11.30
2019-02-19T02:33:07.395Z,11.30
2019-02-19T02:35:40.396Z,11.30
2019-02-19T02:38:08.325Z,11.30
2019-02-19T02:40:36.285Z,11.30
2019-02-19T02:43:04.275Z,11.30
2019-02-19T02:45:32.386Z,11.30
2019-02-19T02:48:02.330Z,11.30
2019-02-19T02:50:30.291Z,11.30
2019-02-19T02:52:58.261Z,11.30
2019-02-19T02:55:26.218Z,11.30
2019-02-19T02:57:54.158Z,11.30
2019-02-19T03:00:22.133Z,11.20
2019-02-19T03:02:50.171Z,11.20
2019-02-19T03:05:18.168Z,11.20
2019-02-19T03:07:51.836Z,11.20
2019-02-19T03:10:20.935Z,11.20
2019-02-19T03:12:48.943Z,11.20
2019-02-19T03:15:17.223Z,11.10
2019-02-19T03:17:45.161Z,11.20
2019-02-19T03:20:13.070Z,11.20
2019-02-19T03:22:41.162Z,11.20
2019-02-19T03:25:09.219Z,11.10
2019-02-19T03:27:37.625Z,11.10
2019-02-19T03:30:05.564Z,11.10
2019-02-19T03:32:39.794Z,11.10
2019-02-19T03:35:07.843Z,11.10
2019-02-19T03:37:35.866Z,11.10
2019-02-19T03:40:04.035Z,11.10
2019-02-19T03:42:35.043Z,11.10
2019-02-19T03:45:06.339Z,11.10
2019-02-19T03:47:43.359Z,11.00
2019-02-19T03:50:11.313Z,11.00
2019-02-19T03:52:39.324Z,11.00
2019-02-19T03:55:07.358Z,10.90
2019-02-19T03:57:35.292Z,10.90
2019-02-19T04:00:03.209Z,10.90
2019-02-19T04:02:37.565Z,10.90
2019-02-19T04:05:11.669Z,10.90
2019-02-19T04:07:39.824Z,10.90
2019-02-19T04:10:07.797Z,10.80
2019-02-19T04:12:35.718Z,10.90
2019-02-19T04:15:08.711Z,10.90
2019-02-19T04:17:36.831Z,10.90
2019-02-19T04:20:06.705Z,10.90
2019-02-19T04:22:34.688Z,10.90
2019-02-19T04:25:04.076Z,10.90
2019-02-19T04:27:31.992Z,10.90
2019-02-19T04:30:01.938Z,11.00
2019-02-19T04:32:29.844Z,11.00
2019-02-19T04:34:57.784Z,11.00
2019-02-19T04:37:25.696Z,11.00
2019-02-19T04:39:53.663Z,11.00
2019-02-19T04:42:21.594Z,11.00
2019-02-19T04:44:49.575Z,11.00
2019-02-19T04:47:20.542Z,11.00
2019-02-19T04:49:48.483Z,11.00
2019-02-19T04:52:16.426Z,10.90
2019-02-19T04:54:46.053Z,10.90
2019-02-19T04:57:13.995Z,10.90
2019-02-19T04:59:41.876Z,10.90
2019-02-19T05:02:09.824Z,10.90
2019-02-19T05:04:37.882Z,10.90
2019-02-19T05:07:05.896Z,11.00
2019-02-19T05:09:33.840Z,10.90
2019-02-19T05:12:02.032Z,10.90
2019-02-19T05:14:29.959Z,10.90
2019-02-19T05:16:57.903Z,10.80
2019-02-19T05:19:25.810Z,10.80
2019-02-19T05:21:53.737Z,10.80
2019-02-19T05:24:21.812Z,10.70
2019-02-19T05:26:49.728Z,10.70
2019-02-19T05:29:17.883Z,10.70
2019-02-19T05:31:45.794Z,10.70
2019-02-19T05:34:13.770Z,10.70
2019-02-19T05:36:41.673Z,10.80
2019-02-19T05:39:09.598Z,10.90
2019-02-19T05:41:38.138Z,10.90
2019-02-19T05:44:07.276Z,10.90
2019-02-19T05:46:35.216Z,11.00
2019-02-19T05:49:03.572Z,11.00
2019-02-19T05:51:31.487Z,11.00
2019-02-19T05:53:59.900Z,11.00
2019-02-19T05:56:27.821Z,11.10
2019-02-19T05:58:55.713Z,11.20
2019-02-19T06:01:23.624Z,11.20
2019-02-19T06:03:52.670Z,11.10
2019-02-19T06:06:20.588Z,11.10
2019-02-19T06:08:48.535Z,11.20
2019-02-19T06:11:16.497Z,11.20
2019-02-19T06:13:44.583Z,11.10
2019-02-19T06:16:12.512Z,11.10
2019-02-19T06:18:40.416Z,11.10
2019-02-19T06:21:08.574Z,11.10
2019-02-19T06:23:36.495Z,11.10
2019-02-19T06:26:04.404Z,11.10
2019-02-19T06:28:32.357Z,11.10
2019-02-19T06:31:00.291Z,11.10
2019-02-19T06:33:28.203Z,11.10
2019-02-19T06:35:56.128Z,11.20
2019-02-19T06:38:24.102Z,11.20
2019-02-19T06:40:52.049Z,11.20
2019-02-19T06:43:19.974Z,11.20
2019-02-19T06:45:47.928Z,11.20
2019-02-19T06:48:15.983Z,11.20
2019-02-19T06:50:43.914Z,11.10
2019-02-19T06:53:11.873Z,11.20
2019-02-19T06:55:40.738Z,11.20
2019-02-19T06:58:08.762Z,11.10
2019-02-19T07:00:36.787Z,11.10
2019-02-19T07:03:21.850Z,11.20
2019-02-19T07:05:50.866Z,11.30
2019-02-19T07:08:28.071Z,11.30
2019-02-19T07:10:56.120Z,11.40
2019-02-19T07:13:24.030Z,11.50
2019-02-19T07:15:51.966Z,11.50
2019-02-19T07:18:21.145Z,11.60
2019-02-19T07:20:49.212Z,11.70
2019-02-19T07:23:17.118Z,11.70
2019-02-19T07:25:45.026Z,11.80
2019-02-19T07:28:12.922Z,11.90
2019-02-19T07:30:40.843Z,12.00
2019-02-19T07:33:08.950Z,12.10
2019-02-19T07:35:37.176Z,12.30
2019-02-19T07:38:05.090Z,12.50
2019-02-19T07:40:33.049Z,12.70
2019-02-19T07:43:00.966Z,13.00
2019-02-19T07:45:28.879Z,13.30
2019-02-19T07:47:56.781Z,13.70
2019-02-19T07:50:24.870Z,14.20
2019-02-19T07:52:52.895Z,14.80
2019-02-19T07:55:20.824Z,15.60
2019-02-19T07:57:48.750Z,16.30
2019-02-19T08:00:16.721Z,16.80
2019-02-19T08:02:44.645Z,17.00
2019-02-19T08:05:12.591Z,17.30
2019-02-19T08:07:40.538Z,17.40
2019-02-19T08:10:08.488Z,17.40
2019-02-19T08:12:36.856Z,17.20
2019-02-19T08:15:04.778Z,16.90
2019-02-19T08:17:33.612Z,16.80
2019-02-19T08:20:01.684Z,16.60
2019-02-19T08:22:29.601Z,16.40
2019-02-19T08:24:57.521Z,16.10
2019-02-19T08:27:25.465Z,16.40
2019-02-19T08:29:53.381Z,17.10
2019-02-19T08:32:21.471Z,18.10
2019-02-19T08:34:49.398Z,18.70
2019-02-19T08:37:17.327Z,18.70
2019-02-19T08:39:47.130Z,18.40
2019-02-19T08:42:14.790Z,18.10
2019-02-19T08:44:42.973Z,17.70
2019-02-19T08:47:12.832Z,17.40
2019-02-19T08:49:40.419Z,17.40
2019-02-19T08:52:08.577Z,18.10
2019-02-19T08:54:36.924Z,19.00
2019-02-19T08:57:05.520Z,20.10
2019-02-19T08:59:33.434Z,21.20
2019-02-19T09:02:01.733Z,22.00
2019-02-19T09:04:29.672Z,22.40
2019-02-19T09:06:57.600Z,22.80
2019-02-19T09:09:25.616Z,22.60
2019-02-19T09:11:53.480Z,22.80
2019-02-19T09:14:22.498Z,22.90
2019-02-19T09:16:50.558Z,22.90
2019-02-19T09:19:18.456Z,23.00
2019-02-19T09:21:46.570Z,23.50
2019-02-19T09:24:14.563Z,23.90
2019-02-19T09:26:42.455Z,23.90
2019-02-19T09:29:10.393Z,23.40
2019-02-19T09:31:38.305Z,22.60
2019-02-19T09:34:06.220Z,22.00
2019-02-19T09:36:34.149Z,21.60
2019-02-19T09:39:02.098Z,21.60
2019-02-19T09:41:30.935Z,22.20
2019-02-19T09:43:58.819Z,22.40
2019-02-19T09:46:26.808Z,22.40
2019-02-19T09:48:55.183Z,23.30
2019-02-19T09:51:23.099Z,24.20
2019-02-19T09:53:51.072Z,24.50
2019-02-19T09:56:21.722Z,24.40
2019-02-19T09:58:49.642Z,24.30
2019-02-19T10:01:17.588Z,24.20
2019-02-19T10:03:45.511Z,23.80
2019-02-19T10:06:16.183Z,23.30
2019-02-19T10:08:44.278Z,22.90
2019-02-19T10:11:15.312Z,22.30
2019-02-19T10:13:43.239Z,21.90
2019-02-19T10:16:11.226Z,21.50
2019-02-19T10:18:40.321Z,21.20
2019-02-19T10:21:08.247Z,21.00
2019-02-19T10:23:36.357Z,21.00
2019-02-19T10:26:04.248Z,21.10
2019-02-19T10:28:32.137Z,21.60
2019-02-19T10:31:00.036Z,22.20
2019-02-19T10:33:27.994Z,22.60
2019-02-19T10:35:55.895Z,22.90
2019-02-19T10:38:23.799Z,22.90
2019-02-19T10:40:52.578Z,22.80
2019-02-19T10:43:20.718Z,22.90
2019-02-19T10:45:48.718Z,23.00
2019-02-19T10:48:19.377Z,23.10
2019-02-19T10:50:47.377Z,23.60
2019-02-19T10:53:15.346Z,24.00
2019-02-19T10:55:43.435Z,24.00
2019-02-19T10:58:11.643Z,23.70
2019-02-19T11:00:39.699Z,23.20
2019-02-19T11:03:07.601Z,22.70
2019-02-19T11:05:36.915Z,22.20
2019-02-19T11:08:05.000Z,21.50
2019-02-19T11:10:32.970Z,21.10
2019-02-19T11:13:02.542Z,20.50
2019-02-19T11:15:30.695Z,20.10
2019-02-19T11:17:58.794Z,19.80
2019-02-19T11:20:26.818Z,19.50
2019-02-19T11:22:54.852Z,19.30
2019-02-19T11:25:22.742Z,19.10
2019-02-19T11:27:50.806Z,18.90
2019-02-19T11:30:20.215Z,18.60
2019-02-19T11:32:48.201Z,18.40
2019-02-19T11:35:16.500Z,18.30
2019-02-19T11:37:44.844Z,18.20
2019-02-19T11:40:12.712Z,18.00
2019-02-19T11:42:40.579Z,17.90
2019-02-19T11:45:08.522Z,17.90
2019-02-19T11:47:36.460Z,17.80
2019-02-19T11:50:04.352Z,18.00
2019-02-19T11:52:32.230Z,17.90
2019-02-19T11:55:03.901Z,18.10
2019-02-19T11:57:31.721Z,18.20
2019-02-19T11:59:59.638Z,18.30
2019-02-19T12:02:32.959Z,18.20
2019-02-19T12:04:57.697Z,18.00
2019-02-19T12:07:25.637Z,17.80
2019-02-19T12:09:53.543Z,17.80
2019-02-19T12:12:21.391Z,17.90
2019-02-19T12:14:49.326Z,18.10
2019-02-19T12:17:18.268Z,18.20
2019-02-19T12:19:46.144Z,18.40
2019-02-19T12:22:14.119Z,18.50
2019-02-19T12:24:42.020Z,18.60
2019-02-19T12:27:09.915Z,18.60
2019-02-19T12:29:37.832Z,18.50
2019-02-19T12:32:06.721Z,18.50
2019-02-19T12:34:34.577Z,18.40
2019-02-19T12:37:02.613Z,18.40
2019-02-19T12:39:30.506Z,18.30
2019-02-19T12:41:58.414Z,18.20
2019-02-19T12:44:26.318Z,18.10
2019-02-19T12:46:54.305Z,18.20
2019-02-19T12:49:22.539Z,18.40
2019-02-19T12:51:50.442Z,18.40
2019-02-19T12:54:18.307Z,18.40
2019-02-19T12:56:47.232Z,18.60
2019-02-19T12:59:15.218Z,18.80
2019-02-19T13:01:43.145Z,19.10
2019-02-19T13:04:11.405Z,19.30
2019-02-19T13:06:39.387Z,19.70
2019-02-19T13:09:08.718Z,20.10
2019-02-19T13:11:36.807Z,20.60
2019-02-19T13:14:05.531Z,20.80
2019-02-19T13:16:33.424Z,20.90
2019-02-19T13:19:03.804Z,20.80
2019-02-19T13:21:31.407Z,20.50
2019-02-19T13:23:59.416Z,20.10
2019-02-19T13:26:28.302Z,19.90
2019-02-19T13:28:56.553Z,20.00
2019-02-19T13:31:24.447Z,20.10
2019-02-19T13:33:52.545Z,20.30
2019-02-19T13:36:20.477Z,20.40
2019-02-19T13:38:48.622Z,20.60
2019-02-19T13:41:16.810Z,20.80
2019-02-19T13:43:44.682Z,21.00
2019-02-19T13:46:12.657Z,21.10
2019-02-19T13:48:40.919Z,20.90
2019-02-19T13:51:09.131Z,21.00
2019-02-19T13:53:41.612Z,21.10
2019-02-19T13:56:09.538Z,21.10
2019-02-19T13:58:37.521Z,21.20
2019-02-19T14:01:05.527Z,21.30
2019-02-19T14:03:33.543Z,21.30
2019-02-19T14:06:01.626Z,21.30
2019-02-19T14:08:29.590Z,21.30
2019-02-19T14:10:57.472Z,21.40
2019-02-19T14:13:25.549Z,21.70
2019-02-19T14:16:13.453Z,21.80
2019-02-19T14:18:55.046Z,22.00
2019-02-19T14:21:42.967Z,21.90
2019-02-19T14:24:29.701Z,21.80
2019-02-19T14:27:15.253Z,21.90
2019-02-19T14:30:02.103Z,21.90
2019-02-19T14:32:48.828Z,21.70
2019-02-19T14:35:35.603Z,21.50
2019-02-19T14:38:22.461Z,21.70
2019-02-19T14:41:09.306Z,21.70
2019-02-19T14:43:54.873Z,21.60
2019-02-19T14:46:50.292Z,21.60
2019-02-19T14:49:37.535Z,21.50
2019-02-19T14:52:24.480Z,21.70
2019-02-19T14:55:14.412Z,21.90
2019-02-19T14:58:07.324Z,22.30
2019-02-19T15:00:52.766Z,22.90
2019-02-19T15:10:29.927Z,26.00
2019-02-19T15:16:36.463Z,27.80
2019-02-19T15:19:28.936Z,28.40
2019-02-19T15:22:41.921Z,28.50
2019-02-19T15:28:44.830Z,29.30
2019-02-19T15:31:56.227Z,29.70
2019-02-19T15:38:07.906Z,30.40
2019-02-19T15:40:53.551Z,30.40
2019-02-19T15:43:33.875Z,30.30
2019-02-19T15:46:39.020Z,30.20
2019-02-19T15:49:34.405Z,29.80
2019-02-19T15:52:26.932Z,29.60
2019-02-19T15:55:12.360Z,29.50
2019-02-19T15:57:53.275Z,29.30
2019-02-19T16:00:40.015Z,28.70
2019-02-19T16:03:13.128Z,27.50
2019-02-19T16:05:51.417Z,25.80
2019-02-19T16:08:38.162Z,24.20
2019-02-19T16:11:16.069Z,22.80
2019-02-19T16:14:02.139Z,21.50
2019-02-19T16:16:48.891Z,20.40
2019-02-19T16:19:34.268Z,19.60
2019-02-19T16:22:12.143Z,18.90
2019-02-19T16:25:08.411Z,18.30
2019-02-19T16:28:04.015Z,17.80
2019-02-19T16:30:53.842Z,17.20
2019-02-19T16:33:49.390Z,16.80
2019-02-19T16:36:36.174Z,16.60
2019-02-19T16:39:31.687Z,16.30
2019-02-19T16:42:17.354Z,16.10
2019-02-19T16:45:20.439Z,15.90
2019-02-19T16:48:05.961Z,15.80
2019-02-19T16:51:01.580Z,15.70
2019-02-19T16:53:57.495Z,15.60
2019-02-19T16:56:48.676Z,15.40
2019-02-19T16:59:34.192Z,15.30
2019-02-19T17:02:23.440Z,15.20
2019-02-19T17:05:14.162Z,15.10
2019-02-19T17:07:47.251Z,14.90
2019-02-19T17:10:27.793Z,14.90
2019-02-19T17:13:27.226Z,14.70
2019-02-19T17:16:18.010Z,14.60
2019-02-19T17:19:04.836Z,14.50
2019-02-19T17:21:51.628Z,14.40
2019-02-19T17:24:41.433Z,14.40
2019-02-19T17:27:37.769Z,14.30
2019-02-19T17:30:26.625Z,14.30
2019-02-19T17:33:32.821Z,14.20
2019-02-19T17:36:16.607Z,14.20
2019-02-19T17:39:02.313Z,14.10
2019-02-19T17:41:47.384Z,14.00
2019-02-19T17:44:24.189Z,13.90
2019-02-19T17:47:10.946Z,13.90
2019-02-19T17:49:45.626Z,13.70
2019-02-19T17:52:31.288Z,13.70
2019-02-19T17:55:19.817Z,13.60
2019-02-19T17:58:09.411Z,13.60
2019-02-19T18:00:56.741Z,13.70
2019-02-19T18:03:49.587Z,13.60
2019-02-19T18:06:36.370Z,13.50
2019-02-19T18:09:13.013Z,13.50
2019-02-19T18:12:04.188Z,13.40
2019-02-19T18:14:50.382Z,13.40
2019-02-19T18:17:44.851Z,13.30
2019-02-19T18:20:12.946Z,13.30
2019-02-19T18:22:40.882Z,13.20
2019-02-19T18:25:08.960Z,13.20
2019-02-19T18:27:36.962Z,13.10
2019-02-19T18:30:05.025Z,13.10
2019-02-19T18:32:33.302Z,13.20
2019-02-19T18:35:01.271Z,13.10
2019-02-19T18:37:29.317Z,13.10
2019-02-19T18:39:57.521Z,13.20
2019-02-19T18:42:25.592Z,13.10
2019-02-19T18:44:53.659Z,13.10
2019-02-19T18:47:21.613Z,13.00
2019-02-19T18:49:49.600Z,13.00
2019-02-19T18:52:17.677Z,13.00
2019-02-19T18:54:46.209Z,13.00
2019-02-19T18:57:14.226Z,12.90
2019-02-19T18:59:42.402Z,12.90
2019-02-19T19:02:12.503Z,13.00
2019-02-19T19:04:40.255Z,12.90
2019-02-19T19:07:08.763Z,12.80
2019-02-19T19:09:38.446Z,12.70
2019-02-19T19:12:07.467Z,12.70
2019-02-19T19:14:35.848Z,12.70
2019-02-19T19:17:03.821Z,12.70
2019-02-19T19:19:31.786Z,12.60
2019-02-19T19:21:59.754Z,12.60
2019-02-19T19:24:28.896Z,12.50
2019-02-19T19:26:57.354Z,12.50
2019-02-19T19:29:25.245Z,12.50
2019-02-19T19:31:53.114Z,12.60
2019-02-19T19:34:21.240Z,12.50
2019-02-19T19:36:49.209Z,12.40
2019-02-19T19:39:17.384Z,12.40
2019-02-19T19:41:45.354Z,12.40
2019-02-19T19:44:13.589Z,12.30
2019-02-19T19:46:41.776Z,12.40
2019-02-19T19:49:09.745Z,12.40
2019-02-19T19:51:37.745Z,12.30
2019-02-19T19:54:05.818Z,12.30
2019-02-19T19:56:33.857Z,12.30
2019-02-19T19:59:02.060Z,12.30
2019-02-19T20:01:30.133Z,12.30
2019-02-19T20:03:58.076Z,12.30
2019-02-19T20:06:26.181Z,12.20
2019-02-19T20:08:54.242Z,12.20
2019-02-19T20:11:22.420Z,12.20
2019-02-19T20:13:50.496Z,12.20
2019-02-19T20:16:18.777Z,12.20
2019-02-19T20:18:46.739Z,12.10
2019-02-19T20:21:14.685Z,12.10
2019-02-19T20:23:43.088Z,12.10
2019-02-19T20:26:11.362Z,12.20
2019-02-19T20:28:40.071Z,12.20
2019-02-19T20:31:08.025Z,12.20
2019-02-19T20:33:36.293Z,12.20
2019-02-19T20:36:04.267Z,12.20
2019-02-19T20:38:32.547Z,12.30
2019-02-19T20:41:00.485Z,12.30
2019-02-19T20:43:30.422Z,12.40
2019-02-19T20:45:58.394Z,12.30
2019-02-19T20:48:26.759Z,12.30
2019-02-19T20:50:54.792Z,12.30
2019-02-19T20:53:23.355Z,12.30
2019-02-19T20:55:53.139Z,12.30
2019-02-19T20:58:22.034Z,12.40
2019-02-19T21:00:50.090Z,12.40
2019-02-19T21:03:18.071Z,12.30
2019-02-19T21:05:46.019Z,12.40
2019-02-19T21:08:14.214Z,12.30
2019-02-19T21:10:42.166Z,12.30
2019-02-19T21:13:10.258Z,12.30
2019-02-19T21:15:38.736Z,12.30
2019-02-19T21:18:06.707Z,12.30
2019-02-19T21:20:34.633Z,12.30
2019-02-19T21:23:02.953Z,12.30
2019-02-19T21:25:31.425Z,12.30
2019-02-19T21:27:59.812Z,12.30
2019-02-19T21:30:27.789Z,12.20
2019-02-19T21:32:55.957Z,12.20
2019-02-19T21:35:24.005Z,12.20
2019-02-19T21:37:52.221Z,12.20
2019-02-19T21:40:20.376Z,12.20
2019-02-19T21:42:48.741Z,12.20
2019-02-19T21:45:16.838Z,12.20
2019-02-19T21:47:45.685Z,12.10
2019-02-19T21:50:15.821Z,12.10
2019-02-19T21:52:43.396Z,12.10
2019-02-19T21:55:11.365Z,12.10
2019-02-19T21:57:39.520Z,12.10
2019-02-19T22:00:09.107Z,12.00
2019-02-19T22:02:38.993Z,11.90
2019-02-19T22:05:07.339Z,11.90
2019-02-19T22:07:35.500Z,11.90
2019-02-19T22:10:03.897Z,11.90
2019-02-19T22:12:32.051Z,11.80
2019-02-19T22:15:00.044Z,11.80
2019-02-19T22:17:28.005Z,11.80
2019-02-19T22:20:02.892Z,11.80
2019-02-19T22:22:27.839Z,11.80
2019-02-19T22:24:56.002Z,11.70
2019-02-19T22:27:24.091Z,11.70
2019-02-19T22:29:52.126Z,11.70
2019-02-19T22:32:20.625Z,11.60
2019-02-19T22:34:48.810Z,11.60
2019-02-19T22:37:16.782Z,11.60
2019-02-19T22:39:47.360Z,11.60
2019-02-19T22:42:15.284Z,11.60
2019-02-19T22:45:02.112Z,11.60
2019-02-19T22:47:30.200Z,11.60
2019-02-19T22:49:58.271Z,11.60
2019-02-19T22:52:26.240Z,11.60
2019-02-19T22:55:03.236Z,11.70
2019-02-19T22:57:31.196Z,11.60
2019-02-19T22:59:59.166Z,11.60
2019-02-19T23:02:29.035Z,11.60
2019-02-19T23:04:56.986Z,11.70
2019-02-19T23:07:25.001Z,11.70
2019-02-19T23:09:53.094Z,11.70
2019-02-19T23:12:22.271Z,11.70
2019-02-19T23:14:51.209Z,11.70
2019-02-19T23:17:19.911Z,11.80
2019-02-19T23:19:49.864Z,11.80
2019-02-19T23:22:21.582Z,11.80
2019-02-19T23:24:47.311Z,11.80
2019-02-19T23:27:16.919Z,11.80
2019-02-19T23:29:45.096Z,11.80
2019-02-19T23:32:13.170Z,11.80
2019-02-19T23:34:41.241Z,11.80
2019-02-19T23:37:23.742Z,11.80
2019-02-19T23:39:51.926Z,11.90
2019-02-19T23:42:19.927Z,11.90
2019-02-19T23:44:47.948Z,12.00
2019-02-19T23:47:16.244Z,12.00
2019-02-19T23:49:44.623Z,11.90
2019-02-19T23:52:12.666Z,11.90
2019-02-19T23:54:40.870Z,11.90
2019-02-19T23:57:08.947Z,11.90
2019-02-19T23:59:37.001Z,12.00
